createdAt,value
2023-01-09T00:02:18.829Z,73.00
2023-01-09T00:04:49.698Z,73.20
2023-01-09T00:07:20.780Z,73.30
2023-01-09T00:09:51.474Z,73.30
2023-01-09T00:12:22.165Z,73.60
2023-01-09T00:14:52.872Z,73.20
2023-01-09T00:17:23.886Z,73.40
2023-01-09T00:19:56.649Z,73.20
2023-01-09T00:22:28.410Z,73.40
2023-01-09T00:24:59.650Z,73.20
2023-01-09T00:27:35.678Z,73.00
2023-01-09T00:30:06.980Z,72.90
2023-01-09T00:32:37.716Z,72.50
2023-01-09T00:35:09.615Z,73.10
2023-01-09T00:37:40.632Z,73.10
2023-01-09T00:40:12.491Z,72.90
2023-01-09T00:42:44.069Z,72.80
2023-01-09T00:45:17.911Z,73.40
2023-01-09T00:47:51.277Z,73.10
2023-01-09T00:50:29.194Z,72.80
2023-01-09T00:53:02.621Z,72.80
2023-01-09T00:55:34.296Z,73.00
2023-01-09T00:58:06.363Z,72.70
2023-01-09T01:00:38.051Z,72.70
2023-01-09T01:03:09.067Z,72.60
2023-01-09T01:05:57.396Z,72.90
2023-01-09T01:08:28.153Z,72.90
2023-01-09T01:10:59.284Z,72.70
2023-01-09T01:13:30.116Z,72.80
2023-01-09T01:16:01.076Z,72.50
2023-01-09T01:18:31.885Z,72.30
2023-01-09T01:21:05.590Z,72.20
2023-01-09T01:23:39.754Z,72.30
2023-01-09T01:26:17.128Z,72.00
2023-01-09T01:28:51.153Z,71.80
2023-01-09T01:31:22.796Z,72.20
2023-01-09T01:33:54.109Z,72.40
2023-01-09T01:36:25.464Z,72.40
2023-01-09T01:38:57.731Z,72.40
2023-01-09T01:41:31.858Z,72.10
2023-01-09T01:44:05.425Z,72.20
2023-01-09T01:46:36.799Z,72.20
2023-01-09T01:49:12.868Z,71.80
2023-01-09T01:51:46.085Z,72.00
2023-01-09T01:54:19.427Z,72.10
2023-01-09T01:56:52.533Z,72.10
2023-01-09T01:59:26.131Z,71.60
2023-01-09T02:01:59.773Z,71.70
2023-01-09T02:04:32.599Z,71.30
2023-01-09T02:07:06.242Z,71.20
2023-01-09T02:09:37.963Z,70.70
2023-01-09T02:12:26.242Z,71.30
2023-01-09T02:15:02.035Z,71.10
2023-01-09T02:17:42.953Z,71.10
2023-01-09T02:20:27.820Z,70.90
2023-01-09T02:23:20.202Z,71.00
2023-01-09T02:26:11.632Z,70.60
2023-01-09T02:28:57.192Z,70.50
2023-01-09T02:31:37.977Z,70.60
2023-01-09T02:34:11.628Z,70.00
2023-01-09T02:37:02.905Z,70.10
2023-01-09T02:39:45.123Z,70.10
2023-01-09T02:42:24.773Z,70.00
2023-01-09T02:44:56.043Z,70.00
2023-01-09T02:47:30.360Z,70.00
2023-01-09T02:50:03.880Z,70.10
2023-01-09T02:53:10.216Z,69.80
2023-01-09T02:55:59.821Z,69.60
2023-01-09T02:58:49.466Z,69.30
2023-01-09T03:01:39.438Z,69.30
2023-01-09T03:04:14.080Z,69.50
2023-01-09T03:06:47.353Z,69.40
2023-01-09T03:09:21.559Z,69.40
2023-01-09T03:11:57.589Z,69.20
2023-01-09T03:14:30.754Z,69.20
2023-01-09T03:17:05.374Z,69.30
2023-01-09T03:19:38.567Z,69.10
2023-01-09T03:22:11.176Z,68.60
2023-01-09T03:24:42.134Z,68.30
2023-01-09T03:27:13.068Z,68.30
2023-01-09T03:29:44.097Z,68.30
2023-01-09T03:32:17.967Z,68.40
2023-01-09T03:34:48.780Z,68.50
2023-01-09T03:37:20.449Z,68.40
2023-01-09T03:39:51.925Z,68.30
2023-01-09T03:42:23.114Z,68.40
2023-01-09T03:44:53.956Z,68.50
2023-01-09T03:47:25.146Z,68.50
2023-01-09T03:49:56.707Z,68.70
2023-01-09T03:52:28.211Z,69.00
2023-01-09T03:54:59.177Z,69.00
2023-01-09T03:57:30.493Z,69.00
2023-01-09T04:00:01.233Z,69.00
2023-01-09T04:02:32.075Z,68.90
2023-01-09T04:05:02.747Z,68.80
2023-01-09T04:07:33.515Z,69.40
2023-01-09T04:10:04.507Z,69.40
2023-01-09T04:12:35.984Z,69.20
2023-01-09T04:15:10.524Z,69.50
2023-01-09T04:17:42.680Z,69.30
2023-01-09T04:20:23.030Z,69.30
2023-01-09T04:23:02.081Z,69.20
2023-01-09T04:25:33.749Z,69.30
2023-01-09T04:28:05.463Z,69.30
2023-01-09T04:30:36.499Z,69.20
2023-01-09T04:33:07.357Z,69.00
2023-01-09T04:35:38.065Z,69.10
2023-01-09T04:38:08.999Z,69.10
2023-01-09T04:40:39.899Z,68.50
2023-01-09T04:43:10.560Z,68.30
2023-01-09T04:45:41.966Z,68.20
2023-01-09T04:48:17.107Z,68.10
2023-01-09T04:50:47.664Z,67.90
2023-01-09T04:53:18.455Z,67.70
2023-01-09T04:55:49.241Z,66.40
2023-01-09T04:58:19.926Z,66.30
2023-01-09T05:00:53.700Z,66.70
2023-01-09T05:03:24.427Z,66.30
2023-01-09T05:05:55.396Z,66.20
2023-01-09T05:08:26.751Z,69.70
2023-01-09T05:10:57.553Z,66.00
2023-01-09T05:13:28.505Z,65.80
2023-01-09T05:15:59.733Z,65.80
2023-01-09T05:18:30.675Z,65.80
2023-01-09T05:21:02.267Z,65.50
2023-01-09T05:23:33.059Z,68.20
2023-01-09T05:26:05.298Z,73.30
2023-01-09T05:28:36.292Z,76.20
2023-01-09T05:31:07.757Z,79.60
2023-01-09T05:33:39.846Z,67.60
2023-01-09T05:36:10.883Z,64.60
2023-01-09T05:38:42.105Z,64.50
2023-01-09T05:41:14.295Z,64.50
2023-01-09T05:43:45.311Z,64.10
2023-01-09T05:46:16.450Z,64.40
2023-01-09T05:48:47.442Z,64.90
2023-01-09T05:51:18.411Z,63.80
2023-01-09T05:53:49.171Z,63.50
2023-01-09T05:56:20.091Z,63.30
2023-01-09T05:58:54.089Z,63.40
2023-01-09T06:01:25.067Z,63.40
2023-01-09T06:03:55.806Z,63.20
2023-01-09T06:06:29.635Z,62.90
2023-01-09T06:09:04.803Z,62.80
2023-01-09T06:11:39.558Z,62.70
2023-01-09T06:14:11.010Z,62.70
2023-01-09T06:16:42.343Z,62.60
2023-01-09T06:19:13.052Z,62.70
2023-01-09T06:21:43.957Z,62.30
2023-01-09T06:24:14.976Z,62.50
2023-01-09T06:26:46.338Z,62.90
2023-01-09T06:29:17.463Z,62.70
2023-01-09T06:31:49.326Z,61.90
2023-01-09T06:34:20.337Z,62.40
2023-01-09T06:36:51.204Z,62.10
2023-01-09T06:39:22.680Z,62.00
2023-01-09T06:41:53.682Z,61.90
2023-01-09T06:44:24.516Z,62.10
2023-01-09T06:46:56.063Z,62.10
2023-01-09T06:49:28.927Z,62.10
2023-01-09T06:52:00.372Z,62.00
2023-01-09T06:54:35.536Z,61.70
2023-01-09T06:57:10.735Z,61.60
2023-01-09T06:59:51.333Z,62.10
2023-01-09T07:02:23.451Z,61.60
2023-01-09T07:04:54.417Z,61.50
2023-01-09T07:07:25.112Z,61.70
2023-01-09T07:09:55.938Z,61.70
2023-01-09T07:12:26.687Z,61.50
2023-01-09T07:14:57.775Z,61.40
2023-01-09T07:17:28.891Z,61.60
2023-01-09T07:20:12.030Z,61.40
2023-01-09T07:22:43.728Z,61.60
2023-01-09T07:25:15.636Z,61.70
2023-01-09T07:27:47.773Z,62.00
2023-01-09T07:30:19.743Z,61.60
2023-01-09T07:32:50.658Z,61.80
2023-01-09T07:35:26.957Z,61.90
2023-01-09T07:38:00.259Z,62.00
2023-01-09T07:40:33.626Z,62.30
2023-01-09T07:43:08.831Z,62.20
2023-01-09T07:45:42.868Z,62.50
2023-01-09T07:48:14.928Z,62.70
2023-01-09T07:50:46.848Z,62.90
2023-01-09T07:53:18.210Z,63.10
2023-01-09T07:55:53.246Z,63.00
2023-01-09T07:58:27.919Z,63.10
2023-01-09T08:00:59.232Z,63.10
2023-01-09T08:03:30.291Z,63.40
2023-01-09T08:09:15.058Z,63.60
2023-01-09T08:11:46.899Z,63.70
2023-01-09T08:14:21.455Z,63.70
2023-01-09T08:16:54.379Z,63.80
2023-01-09T08:19:26.919Z,63.90
2023-01-09T08:22:02.231Z,64.10
2023-01-09T08:24:34.000Z,64.30
2023-01-09T08:27:05.380Z,64.40
2023-01-09T08:29:37.852Z,64.40
2023-01-09T08:32:09.840Z,64.20
2023-01-09T08:34:41.871Z,64.30
2023-01-09T08:37:13.845Z,64.30
2023-01-09T08:39:46.975Z,64.30
2023-01-09T08:42:36.286Z,64.40
2023-01-09T08:45:26.315Z,64.60
2023-01-09T08:47:57.910Z,64.60
2023-01-09T08:50:30.030Z,64.60
2023-01-09T08:53:04.672Z,64.60
2023-01-09T08:55:39.226Z,64.80
2023-01-09T08:58:12.354Z,64.70
2023-01-09T09:00:44.186Z,64.80
2023-01-09T09:03:19.171Z,65.10
2023-01-09T09:05:50.573Z,65.00
2023-01-09T09:08:22.112Z,65.10
2023-01-09T09:10:52.813Z,65.10
2023-01-09T09:13:23.852Z,65.10
2023-01-09T09:15:54.973Z,65.40
2023-01-09T09:18:29.404Z,65.50
2023-01-09T09:21:00.653Z,65.30
2023-01-09T09:23:32.838Z,65.70
2023-01-09T09:26:03.823Z,66.10
2023-01-09T09:28:35.240Z,66.00
2023-01-09T09:31:09.087Z,66.10
2023-01-09T09:33:39.985Z,66.20
2023-01-09T09:36:11.319Z,66.20
2023-01-09T09:38:42.001Z,66.60
2023-01-09T09:41:19.717Z,66.70
2023-01-09T09:44:15.032Z,66.70
2023-01-09T09:46:55.352Z,66.90
2023-01-09T09:49:34.851Z,67.10
2023-01-09T09:52:35.842Z,67.30
2023-01-09T09:55:18.064Z,66.90
2023-01-09T09:57:50.379Z,67.10
2023-01-09T10:00:24.297Z,67.90
2023-01-09T10:02:57.888Z,68.00
2023-01-09T10:05:37.526Z,68.20
2023-01-09T10:08:16.096Z,68.60
2023-01-09T10:10:51.029Z,69.10
2023-01-09T10:13:41.601Z,69.40
2023-01-09T10:16:23.727Z,69.60
2023-01-09T10:19:30.253Z,70.20
2023-01-09T10:22:03.494Z,70.50
2023-01-09T10:25:11.516Z,70.90
2023-01-09T10:28:14.921Z,70.80
2023-01-09T10:30:48.243Z,70.90
2023-01-09T10:33:39.863Z,71.00
2023-01-09T10:36:28.347Z,70.80
2023-01-09T10:39:04.871Z,70.70
2023-01-09T10:41:38.066Z,71.00
2023-01-09T10:44:14.493Z,71.70
2023-01-09T10:46:47.862Z,71.80
2023-01-09T10:49:21.473Z,71.70
2023-01-09T10:52:09.536Z,72.00
2023-01-09T10:54:42.980Z,72.10
2023-01-09T10:57:20.307Z,72.20
2023-01-09T11:00:00.590Z,72.10
2023-01-09T11:02:37.868Z,71.60
2023-01-09T11:05:12.936Z,71.30
2023-01-09T11:07:47.496Z,71.20
2023-01-09T11:10:26.110Z,70.40
2023-01-09T11:12:58.570Z,70.30
2023-01-09T11:15:42.272Z,70.70
2023-01-09T11:18:27.062Z,70.30
2023-01-09T11:20:59.601Z,70.80
2023-01-09T11:23:35.126Z,70.70
2023-01-09T11:26:06.352Z,71.10
2023-01-09T11:28:45.810Z,71.40
2023-01-09T11:31:18.022Z,72.00
2023-01-09T11:33:51.571Z,71.70
2023-01-09T11:36:30.459Z,71.60
2023-01-09T11:39:06.733Z,71.30
2023-01-09T11:41:38.809Z,71.40
2023-01-09T11:44:10.872Z,71.80
2023-01-09T11:46:46.130Z,71.70
2023-01-09T11:49:25.563Z,72.50
2023-01-09T11:52:21.578Z,72.20
2023-01-09T11:54:57.932Z,73.00
2023-01-09T11:57:29.416Z,72.60
2023-01-09T12:00:02.896Z,72.20
2023-01-09T12:02:49.252Z,73.00
2023-01-09T12:05:38.210Z,72.10
2023-01-09T12:08:14.246Z,72.30
2023-01-09T12:10:53.247Z,72.40
2023-01-09T12:13:41.503Z,72.90
2023-01-09T12:16:18.577Z,72.90
2023-01-09T12:19:05.603Z,73.70
2023-01-09T12:21:45.773Z,74.40
2023-01-09T12:24:28.712Z,75.20
2023-01-09T12:27:18.453Z,75.50
2023-01-09T12:29:57.807Z,75.80
2023-01-09T12:32:32.476Z,76.00
2023-01-09T12:35:13.319Z,76.60
2023-01-09T12:38:01.552Z,76.40
2023-01-09T12:40:44.111Z,77.30
2023-01-09T12:43:26.872Z,77.50
2023-01-09T12:46:15.150Z,77.30
2023-01-09T12:48:54.772Z,77.50
2023-01-09T12:51:46.985Z,77.60
2023-01-09T12:54:23.597Z,77.70
2023-01-09T12:56:57.122Z,77.70
2023-01-09T12:59:37.081Z,77.50
2023-01-09T13:02:30.914Z,78.40
2023-01-09T13:05:04.363Z,77.90
2023-01-09T13:07:37.896Z,77.90
2023-01-09T13:10:23.362Z,78.10
2023-01-09T13:12:55.984Z,77.80
2023-01-09T13:15:47.342Z,78.50
2023-01-09T13:18:20.561Z,78.40
2023-01-09T13:20:57.763Z,79.00
2023-01-09T13:23:45.712Z,78.80
2023-01-09T13:26:24.936Z,79.30
2023-01-09T13:29:05.401Z,79.10
2023-01-09T13:31:55.196Z,79.30
2023-01-09T13:34:28.433Z,79.30
2023-01-09T13:37:00.428Z,79.80
2023-01-09T13:39:34.357Z,79.90
2023-01-09T13:42:25.239Z,79.80
2023-01-09T13:44:58.478Z,79.90
2023-01-09T13:47:31.134Z,79.80
2023-01-09T13:50:14.096Z,80.00
2023-01-09T13:52:46.663Z,80.00
2023-01-09T13:55:20.033Z,79.60
2023-01-09T13:58:13.058Z,80.10
2023-01-09T14:00:46.620Z,80.00
2023-01-09T14:03:28.110Z,79.80
2023-01-09T14:06:01.395Z,80.20
2023-01-09T14:08:34.395Z,80.20
2023-01-09T14:11:07.772Z,80.30
2023-01-09T14:13:44.170Z,80.10
2023-01-09T14:16:24.857Z,80.40
2023-01-09T14:19:19.487Z,80.30
2023-01-09T14:21:59.927Z,79.90
2023-01-09T14:24:44.855Z,80.30
2023-01-09T14:27:52.968Z,80.30
2023-01-09T14:30:38.725Z,80.50
2023-01-09T14:33:24.815Z,80.40
2023-01-09T14:36:27.794Z,80.40
2023-01-09T14:39:06.137Z,80.40
2023-01-09T14:42:01.705Z,80.40
2023-01-09T14:44:46.332Z,80.50
2023-01-09T14:47:40.636Z,80.30
2023-01-09T14:50:22.880Z,80.40
2023-01-09T14:52:56.260Z,80.50
2023-01-09T14:55:30.720Z,80.70
2023-01-09T14:58:18.091Z,80.60
2023-01-09T15:01:02.407Z,80.80
2023-01-09T15:03:36.290Z,80.80
2023-01-09T15:06:08.063Z,80.70
2023-01-09T15:08:39.913Z,80.90
2023-01-09T15:11:13.237Z,80.70
2023-01-09T15:13:49.590Z,80.80
2023-01-09T15:16:22.690Z,80.90
2023-01-09T15:18:59.604Z,81.00
2023-01-09T15:21:33.259Z,80.90
2023-01-09T15:24:24.979Z,80.80
2023-01-09T15:26:58.307Z,80.90
2023-01-09T15:29:29.900Z,81.40
2023-01-09T15:32:11.855Z,81.30
2023-01-09T15:34:45.774Z,81.20
2023-01-09T15:37:38.692Z,81.20
2023-01-09T15:40:10.810Z,81.20
2023-01-09T15:42:57.906Z,81.30
2023-01-09T15:45:33.944Z,81.20
2023-01-09T15:48:22.612Z,81.10
2023-01-09T15:51:02.142Z,81.00
2023-01-09T15:53:37.317Z,80.50
2023-01-09T15:56:10.638Z,80.70
2023-01-09T15:58:49.937Z,81.00
2023-01-09T16:01:37.634Z,81.00
2023-01-09T16:04:13.556Z,81.50
2023-01-09T16:07:59.317Z,81.50
2023-01-09T16:09:44.892Z,81.50
2023-01-09T16:15:27.992Z,81.50
2023-01-09T16:18:28.579Z,81.50
2023-01-09T16:24:08.973Z,81.80
2023-01-09T16:27:09.881Z,82.00
2023-01-09T16:29:43.940Z,82.10
2023-01-09T16:32:29.532Z,82.20
2023-01-09T16:35:09.881Z,82.20
2023-01-09T16:37:49.303Z,82.20
2023-01-09T16:40:35.365Z,82.40
2023-01-09T16:43:13.020Z,82.50
2023-01-09T16:45:58.878Z,82.40
2023-01-09T16:48:44.925Z,82.30
2023-01-09T16:51:15.219Z,81.90
2023-01-09T16:53:48.125Z,82.10
2023-01-09T16:56:47.661Z,82.30
2023-01-09T16:59:05.499Z,82.10
2023-01-09T17:01:44.995Z,82.30
2023-01-09T17:04:24.553Z,82.50
2023-01-09T17:06:57.100Z,82.40
2023-01-09T17:09:28.793Z,82.40
2023-01-09T17:12:06.395Z,82.70
2023-01-09T17:17:29.498Z,81.90
2023-01-09T17:20:00.594Z,82.50
2023-01-09T17:22:33.047Z,82.50
2023-01-09T17:25:26.937Z,83.00
2023-01-09T17:28:15.550Z,83.10
2023-01-09T17:30:46.265Z,82.90
2023-01-09T17:33:20.198Z,83.00
2023-01-09T17:35:51.152Z,83.20
2023-01-09T17:38:22.100Z,83.60
2023-01-09T17:40:53.932Z,84.00
2023-01-09T17:43:26.275Z,83.60
2023-01-09T17:45:58.493Z,83.40
2023-01-09T17:48:33.108Z,83.60
2023-01-09T17:51:04.708Z,83.70
2023-01-09T17:53:39.869Z,83.60
2023-01-09T17:56:27.382Z,83.80
2023-01-09T17:59:01.606Z,83.00
2023-01-09T18:01:32.710Z,83.80
2023-01-09T18:04:07.781Z,83.50
2023-01-09T18:06:38.908Z,84.00
2023-01-09T18:09:21.381Z,84.20
2023-01-09T18:11:55.354Z,84.20
2023-01-09T18:14:28.049Z,84.10
2023-01-09T18:17:00.145Z,83.90
2023-01-09T18:19:30.964Z,84.50
2023-01-09T18:22:07.661Z,83.90
2023-01-09T18:24:41.294Z,83.90
2023-01-09T18:27:16.858Z,83.50
2023-01-09T18:29:48.768Z,84.50
2023-01-09T18:32:21.120Z,83.90
2023-01-09T18:34:55.663Z,84.00
2023-01-09T18:37:26.435Z,84.30
2023-01-09T18:40:00.939Z,84.20
2023-01-09T18:42:39.279Z,84.20
2023-01-09T18:45:13.655Z,84.20
2023-01-09T18:50:36.482Z,84.10
2023-01-09T18:53:07.493Z,84.30
2023-01-09T18:55:41.352Z,84.30
2023-01-09T18:58:25.109Z,84.40
2023-01-09T19:00:49.481Z,83.70
2023-01-09T19:03:20.496Z,84.10
2023-01-09T19:05:51.718Z,84.30
2023-01-09T19:08:23.970Z,84.60
2023-01-09T19:11:01.058Z,84.70
2023-01-09T19:13:38.503Z,85.10
2023-01-09T19:16:23.889Z,85.00
2023-01-09T19:18:54.707Z,84.80
2023-01-09T19:21:27.876Z,85.50
2023-01-09T19:24:02.017Z,85.30
2023-01-09T19:26:33.024Z,85.40
2023-01-09T19:29:04.159Z,85.70
2023-01-09T19:31:35.405Z,86.00
2023-01-09T19:34:10.151Z,86.10
2023-01-09T19:36:42.668Z,85.80
2023-01-09T19:39:13.756Z,86.00
2023-01-09T19:41:46.144Z,85.60
2023-01-09T19:44:17.799Z,85.80
2023-01-09T19:46:51.983Z,86.20
2023-01-09T19:49:50.064Z,86.40
2023-01-09T19:52:21.773Z,86.30
2023-01-09T19:54:52.874Z,86.40
2023-01-09T19:57:25.701Z,86.90
2023-01-09T20:00:02.253Z,86.30
2023-01-09T20:02:35.377Z,86.20
2023-01-09T20:05:06.393Z,85.90
2023-01-09T20:07:39.181Z,85.90
2023-01-09T20:10:12.943Z,86.30
2023-01-09T20:12:45.427Z,86.20
2023-01-09T20:15:16.126Z,86.20
2023-01-09T20:17:46.928Z,86.40
2023-01-09T20:22:47.343Z,85.80
2023-01-09T20:25:18.477Z,86.30
2023-01-09T20:27:49.667Z,86.30
2023-01-09T20:30:22.586Z,86.50
2023-01-09T20:32:54.055Z,86.60
2023-01-09T20:35:24.758Z,86.90
2023-01-09T20:37:55.495Z,87.20
2023-01-09T20:40:26.260Z,86.40
2023-01-09T20:42:57.004Z,87.00
2023-01-09T20:45:29.163Z,86.40
2023-01-09T20:47:59.936Z,86.60
2023-01-09T20:50:32.743Z,87.00
2023-01-09T20:53:03.489Z,86.90
2023-01-09T20:55:34.204Z,87.00
2023-01-09T20:58:05.412Z,87.10
2023-01-09T21:00:36.133Z,86.90
2023-01-09T21:03:07.036Z,86.70
2023-01-09T21:05:39.032Z,86.60
2023-01-09T21:08:09.838Z,86.90
2023-01-09T21:10:40.851Z,86.90
2023-01-09T21:13:11.750Z,87.00
2023-01-09T21:15:42.581Z,87.10
2023-01-09T21:18:14.893Z,86.80
2023-01-09T21:20:45.904Z,87.00
2023-01-09T21:23:16.729Z,87.00
2023-01-09T21:25:48.905Z,87.20
2023-01-09T21:28:20.805Z,87.20
2023-01-09T21:30:51.710Z,86.90
2023-01-09T21:33:23.952Z,86.80
2023-01-09T21:35:58.669Z,87.30
2023-01-09T21:38:29.719Z,87.10
2023-01-09T21:41:01.960Z,87.70
2023-01-09T21:43:51.026Z,87.50
2023-01-09T21:46:39.656Z,87.80
2023-01-09T21:49:10.534Z,87.30
2023-01-09T21:51:42.366Z,87.50
2023-01-09T21:54:13.240Z,88.00
2023-01-09T21:56:44.071Z,87.80
2023-01-09T21:59:15.037Z,88.50
2023-01-09T22:01:46.008Z,87.40
2023-01-09T22:04:21.663Z,88.10
2023-01-09T22:06:52.565Z,88.10
2023-01-09T22:09:23.759Z,88.20
2023-01-09T22:11:54.580Z,88.10
2023-01-09T22:14:25.588Z,88.90
2023-01-09T22:16:56.756Z,88.30
2023-01-09T22:19:28.246Z,88.30
2023-01-09T22:21:59.218Z,87.60
2023-01-09T22:24:30.286Z,88.20
2023-01-09T22:27:01.022Z,88.10
2023-01-09T22:29:31.902Z,88.10
2023-01-09T22:32:02.685Z,88.30
2023-01-09T22:34:33.494Z,88.40
2023-01-09T22:37:04.705Z,88.70
2023-01-09T22:39:35.595Z,88.10
2023-01-09T22:42:08.027Z,87.80
2023-01-09T22:44:38.717Z,88.20
2023-01-09T22:47:10.681Z,87.90
2023-01-09T22:49:52.396Z,87.90
2023-01-09T22:52:14.799Z,88.00
2023-01-09T22:54:46.838Z,88.10
2023-01-09T22:57:20.958Z,88.00
2023-01-09T22:59:53.899Z,87.60
2023-01-09T23:02:24.564Z,87.90
2023-01-09T23:04:58.035Z,88.90
2023-01-09T23:07:34.861Z,87.80
2023-01-09T23:10:06.651Z,87.80
2023-01-09T23:12:39.846Z,86.90
2023-01-09T23:15:11.872Z,87.40
2023-01-09T23:17:42.596Z,87.80
2023-01-09T23:20:14.847Z,87.40
2023-01-09T23:22:45.647Z,87.40
2023-01-09T23:25:17.976Z,87.80
2023-01-09T23:27:48.658Z,87.80
2023-01-09T23:30:19.723Z,87.70
2023-01-09T23:32:50.503Z,87.80
2023-01-09T23:35:21.249Z,87.60
2023-01-09T23:37:52.055Z,87.80
2023-01-09T23:40:22.857Z,87.90
2023-01-09T23:43:12.086Z,88.10
2023-01-09T23:45:48.110Z,88.20
2023-01-09T23:48:20.069Z,88.30
2023-01-09T23:50:56.006Z,88.10
2023-01-09T23:53:27.411Z,88.20
2023-01-09T23:55:58.330Z,87.90
2023-01-09T23:58:29.870Z,88.10
